Terminal Aerodrome Forecast
Issued by NWS Oklahoma City, OK

Home | Current Version | Previous Version | Text Only | Print | Product List | Glossary On
Versions: 1 2 3 4 5 6 7 8 9 10 11 12 13 14 15 16 17 18 19 20 21 22 23 24 25
000
FTUS44 KOUN 310536
TAFOUN
TAF
KOUN 310536Z 3106/0106 04010KT P6SM OVC007
      TEMPO 3106/3109 4SM -RA BR OVC004
     FM310900 02010KT 4SM BR OVC005
     FM311500 03010KT P6SM OVC015
     FM311900 01011KT P6SM BKN035
     FM010000 05004KT P6SM SCT040=

USA.gov is the U.S. government's official web portal to all federal, state and local government web resources and services.